createdAt,value
2023-01-13T00:02:43.128Z,18.27
2023-01-13T00:07:34.911Z,15.38
2023-01-13T00:12:26.660Z,14.95
2023-01-13T00:17:18.348Z,15.27
2023-01-13T00:22:10.155Z,14.60
2023-01-13T00:27:01.847Z,14.70
2023-01-13T00:31:54.031Z,14.57
2023-01-13T00:36:45.771Z,13.85
2023-01-13T00:41:56.067Z,13.85
2023-01-13T00:46:47.819Z,12.85
2023-01-13T00:51:39.550Z,13.02
2023-01-13T00:56:40.170Z,13.13
2023-01-13T01:01:33.116Z,14.13
2023-01-13T01:06:26.703Z,12.73
2023-01-13T01:11:22.848Z,12.73
2023-01-13T01:16:17.348Z,13.65
2023-01-13T01:21:09.494Z,15.35
2023-01-13T01:26:02.384Z,13.38
2023-01-13T01:30:55.406Z,15.27
2023-01-13T01:35:47.324Z,16.23
2023-01-13T01:40:39.127Z,14.82
2023-01-13T01:45:31.349Z,14.85
2023-01-13T01:50:23.935Z,12.90
2023-01-13T01:55:37.097Z,13.25
2023-01-13T02:00:29.739Z,13.65
2023-01-13T02:05:22.443Z,14.60
2023-01-13T02:10:17.592Z,12.80
2023-01-13T02:15:13.092Z,12.10
2023-01-13T02:20:04.755Z,11.13
2023-01-13T02:25:15.260Z,11.50
2023-01-13T02:30:50.084Z,11.50
2023-01-13T02:36:06.495Z,12.00
2023-01-13T02:41:23.452Z,11.38
2023-01-13T02:46:27.644Z,11.57
2023-01-13T02:51:24.107Z,11.88
2023-01-13T02:56:17.430Z,11.55
2023-01-13T03:01:09.161Z,12.23
2023-01-13T03:06:33.105Z,12.80
2023-01-13T03:11:31.642Z,10.77
2023-01-13T03:16:27.390Z,10.10
2023-01-13T03:21:39.300Z,10.77
2023-01-13T03:26:45.043Z,12.20
2023-01-13T03:31:44.339Z,11.32
2023-01-13T03:36:38.983Z,11.30
2023-01-13T03:41:36.909Z,12.18
2023-01-13T03:47:00.821Z,10.65
2023-01-13T03:51:56.938Z,9.98
2023-01-13T03:56:54.968Z,10.45
2023-01-13T04:01:57.315Z,10.77
2023-01-13T04:06:56.646Z,10.23
2023-01-13T04:12:13.044Z,10.05
2023-01-13T04:17:05.291Z,9.32
2023-01-13T04:21:56.990Z,10.35
2023-01-13T04:26:48.721Z,9.80
2023-01-13T04:31:40.957Z,9.30
2023-01-13T04:36:32.650Z,10.15
2023-01-13T04:41:24.454Z,10.40
2023-01-13T04:46:16.162Z,9.05
2023-01-13T04:51:07.870Z,9.93
2023-01-13T04:55:59.517Z,9.75
2023-01-13T05:00:51.688Z,10.07
2023-01-13T05:05:43.485Z,9.80
2023-01-13T05:10:35.179Z,9.25
2023-01-13T05:15:45.472Z,9.88
2023-01-13T05:20:37.212Z,9.65
2023-01-13T05:25:29.214Z,10.48
2023-01-13T05:30:22.995Z,11.18
2023-01-13T05:35:16.216Z,9.95
2023-01-13T05:40:27.692Z,10.25
2023-01-13T05:45:19.361Z,10.38
2023-01-13T05:50:11.467Z,10.27
2023-01-13T05:55:03.377Z,10.13
2023-01-13T05:59:55.164Z,10.10
2023-01-13T06:04:46.917Z,9.82
2023-01-13T06:09:38.626Z,10.18
2023-01-13T06:14:40.146Z,10.57
2023-01-13T06:19:31.911Z,11.18
2023-01-13T06:24:23.545Z,10.85
2023-01-13T06:29:17.032Z,10.85
2023-01-13T06:34:13.387Z,10.70
2023-01-13T06:39:05.930Z,11.27
2023-01-13T06:43:57.635Z,12.40
2023-01-13T06:48:49.279Z,11.45
2023-01-13T06:53:41.011Z,12.00
2023-01-13T06:58:32.730Z,10.65
2023-01-13T07:03:24.403Z,11.77
2023-01-13T07:08:16.113Z,11.45
2023-01-13T07:13:26.223Z,10.60
2023-01-13T07:18:17.899Z,11.13
2023-01-13T07:23:09.579Z,12.20
2023-01-13T07:28:01.213Z,13.18
2023-01-13T07:32:52.881Z,12.35
2023-01-13T07:37:44.640Z,13.13
2023-01-13T07:42:56.871Z,12.57
2023-01-13T07:47:52.472Z,13.40
2023-01-13T07:52:44.130Z,14.52
2023-01-13T07:57:35.876Z,14.23
2023-01-13T08:02:28.559Z,13.23
2023-01-13T08:07:20.386Z,12.68
2023-01-13T08:12:30.749Z,14.30
2023-01-13T08:17:22.428Z,13.80
2023-01-13T08:22:14.483Z,14.15
2023-01-13T08:27:06.235Z,15.02
2023-01-13T08:31:57.981Z,14.43
2023-01-13T08:36:50.588Z,15.75
2023-01-13T08:41:55.919Z,17.50
2023-01-13T08:46:47.695Z,19.13
2023-01-13T08:51:39.481Z,20.23
2023-01-13T08:56:35.032Z,18.90
2023-01-13T09:01:27.785Z,17.80
2023-01-13T09:06:19.828Z,17.77
2023-01-13T09:11:43.609Z,19.00
2023-01-13T09:16:35.281Z,20.05
2023-01-13T09:21:27.462Z,23.20
2023-01-13T09:26:21.195Z,25.50
2023-01-13T09:31:13.462Z,24.77
2023-01-13T09:36:05.680Z,27.75
2023-01-13T09:40:57.438Z,29.65
2023-01-13T09:46:01.773Z,33.60
2023-01-13T09:50:59.976Z,33.22
2023-01-13T09:55:53.013Z,34.85
2023-01-13T10:00:50.673Z,35.05
2023-01-13T10:05:44.982Z,36.40
2023-01-13T10:10:55.328Z,37.33
2023-01-13T10:16:01.971Z,33.58
2023-01-13T10:21:22.393Z,34.35
2023-01-13T10:26:25.299Z,30.75
2023-01-13T10:31:17.766Z,33.47
2023-01-13T10:36:12.463Z,33.17
2023-01-13T10:41:20.549Z,34.08
2023-01-13T10:46:18.216Z,32.63
2023-01-13T10:51:18.854Z,32.55
2023-01-13T10:56:17.114Z,35.35
2023-01-13T11:01:26.109Z,31.05
2023-01-13T11:06:29.941Z,30.58
2023-01-13T11:11:35.227Z,30.70
2023-01-13T11:16:28.371Z,32.13
2023-01-13T11:21:29.870Z,32.13
2023-01-13T11:26:27.500Z,28.67
2023-01-13T11:31:33.826Z,28.43
2023-01-13T11:36:31.655Z,31.33
2023-01-13T11:41:28.984Z,36.27
2023-01-13T11:46:26.002Z,38.90
2023-01-13T11:51:29.637Z,39.45
2023-01-13T11:56:33.653Z,39.20
2023-01-13T12:01:50.145Z,40.97
2023-01-13T12:06:43.604Z,43.58
2023-01-13T12:12:17.424Z,41.20
2023-01-13T12:17:26.271Z,44.85
2023-01-13T12:27:30.159Z,43.22
2023-01-13T12:32:33.519Z,47.00
2023-01-13T12:37:32.829Z,45.67
2023-01-13T12:43:03.080Z,45.65
2023-01-13T12:47:55.677Z,42.85
2023-01-13T12:52:48.482Z,42.17
2023-01-13T12:57:54.494Z,40.17
2023-01-13T13:03:10.995Z,38.63
2023-01-13T13:08:11.860Z,40.17
2023-01-13T13:13:20.186Z,37.72
2023-01-13T13:18:17.632Z,40.13
2023-01-13T13:23:48.417Z,37.60
2023-01-13T13:28:49.129Z,37.45
2023-01-13T13:33:50.025Z,35.63
2023-01-13T13:39:17.399Z,36.70
2023-01-13T13:44:56.018Z,35.08
2023-01-13T13:49:53.505Z,35.78
2023-01-13T13:54:49.479Z,34.22
2023-01-13T13:59:41.266Z,35.80
2023-01-13T14:04:35.628Z,36.35
2023-01-13T14:09:39.689Z,36.90
2023-01-13T14:14:31.392Z,36.72
2023-01-13T14:19:35.081Z,37.30
2023-01-13T14:24:27.216Z,37.00
2023-01-13T14:29:23.871Z,36.05
2023-01-13T14:34:32.589Z,37.55
2023-01-13T14:39:33.010Z,36.38
2023-01-13T14:44:32.283Z,38.67
2023-01-13T14:49:32.062Z,38.05
2023-01-13T14:54:42.531Z,37.92
2023-01-13T14:59:40.209Z,41.22
2023-01-13T15:04:37.506Z,40.27
2023-01-13T15:09:38.891Z,38.55
2023-01-13T15:14:34.835Z,41.45
2023-01-13T15:19:26.577Z,41.72
2023-01-13T15:24:18.260Z,41.47
2023-01-13T15:29:15.248Z,41.00
2023-01-13T15:34:06.946Z,41.83
2023-01-13T15:39:00.130Z,40.33
2023-01-13T15:44:10.521Z,40.90
2023-01-13T15:49:09.883Z,41.20
2023-01-13T15:54:02.565Z,41.30
2023-01-13T15:58:54.891Z,44.53
2023-01-13T16:03:46.587Z,46.90
2023-01-13T16:08:38.277Z,42.13
2023-01-13T16:13:29.924Z,43.45
2023-01-13T16:18:26.498Z,42.60
2023-01-13T16:23:18.714Z,42.95
2023-01-13T16:28:20.419Z,47.70
2023-01-13T16:33:12.389Z,46.03
2023-01-13T16:38:04.137Z,44.47
2023-01-13T16:42:57.078Z,45.67
2023-01-13T16:47:49.214Z,45.35
2023-01-13T16:52:40.845Z,48.08
2023-01-13T16:57:32.602Z,46.13
2023-01-13T17:02:24.825Z,44.97
2023-01-13T17:07:17.085Z,49.00
2023-01-13T17:12:10.434Z,47.35
2023-01-13T17:17:02.120Z,45.13
2023-01-13T17:21:53.888Z,45.22
2023-01-13T17:26:50.975Z,44.10
2023-01-13T17:31:42.900Z,42.38
2023-01-13T17:36:34.657Z,46.92
2023-01-13T17:41:26.754Z,46.45
2023-01-13T17:46:19.953Z,44.28
2023-01-13T17:51:14.060Z,41.25
2023-01-13T17:56:06.752Z,42.85
2023-01-13T18:00:58.531Z,41.15
2023-01-13T18:05:50.346Z,39.10
2023-01-13T18:10:42.117Z,37.70
2023-01-13T18:15:33.777Z,38.08
2023-01-13T18:20:44.197Z,40.10
2023-01-13T18:25:54.172Z,36.58
2023-01-13T18:30:45.998Z,36.80
2023-01-13T18:35:40.523Z,34.33
2023-01-13T18:40:32.253Z,35.75
2023-01-13T18:45:26.446Z,38.30
2023-01-13T18:50:18.850Z,36.70
2023-01-13T18:55:10.586Z,40.42
2023-01-13T19:00:02.976Z,38.40
2023-01-13T19:04:54.698Z,38.95
2023-01-13T19:09:46.499Z,36.20
2023-01-13T19:14:38.282Z,39.78
2023-01-13T19:19:30.186Z,40.70
2023-01-13T19:24:22.461Z,36.42
2023-01-13T19:29:14.521Z,38.05
2023-01-13T19:34:06.197Z,38.67
2023-01-13T19:38:59.102Z,35.75
2023-01-13T19:44:29.129Z,37.63
2023-01-13T19:49:20.825Z,36.95
2023-01-13T19:54:12.563Z,38.03
2023-01-13T19:59:04.367Z,39.80
2023-01-13T20:04:02.791Z,37.75
2023-01-13T20:08:54.448Z,39.03
2023-01-13T20:13:46.179Z,41.38
2023-01-13T20:18:37.996Z,41.47
2023-01-13T20:23:29.739Z,42.05
2023-01-13T20:28:21.549Z,41.35
2023-01-13T20:33:13.832Z,38.50
2023-01-13T20:38:06.300Z,39.97
2023-01-13T20:42:58.036Z,40.90
2023-01-13T20:47:49.772Z,39.53
2023-01-13T20:52:43.277Z,39.55
2023-01-13T20:57:35.642Z,43.75
2023-01-13T21:02:27.354Z,37.90
2023-01-13T21:07:19.048Z,37.85
2023-01-13T21:12:33.362Z,37.00
2023-01-13T21:17:43.730Z,35.28
2023-01-13T21:22:36.101Z,33.20
2023-01-13T21:27:29.422Z,32.45
2023-01-13T21:32:21.247Z,31.35
2023-01-13T21:37:14.808Z,28.50
2023-01-13T21:42:25.074Z,29.58
2023-01-13T21:47:37.624Z,29.05
2023-01-13T21:52:29.406Z,32.70
2023-01-13T21:57:21.081Z,32.92
2023-01-13T22:02:28.810Z,33.58
2023-01-13T22:07:21.213Z,30.30
2023-01-13T22:12:12.984Z,25.30
2023-01-13T22:17:04.641Z,22.52
2023-01-13T22:21:57.165Z,20.02
2023-01-13T22:26:48.825Z,19.38
2023-01-13T22:31:40.532Z,17.35
2023-01-13T22:36:32.248Z,16.30
2023-01-13T22:41:24.055Z,16.02
2023-01-13T22:46:15.923Z,15.93
2023-01-13T22:51:12.946Z,15.38
2023-01-13T22:56:05.484Z,14.00
2023-01-13T23:01:07.385Z,14.27
2023-01-13T23:05:59.467Z,13.88
2023-01-13T23:10:51.330Z,16.17
2023-01-13T23:15:43.132Z,13.90
2023-01-13T23:20:34.829Z,13.80
2023-01-13T23:25:26.825Z,15.13
2023-01-13T23:30:18.634Z,14.57
2023-01-13T23:35:10.288Z,13.52
2023-01-13T23:40:02.562Z,12.98
2023-01-13T23:44:54.319Z,12.30
2023-01-13T23:49:45.950Z,12.18
2023-01-13T23:54:37.733Z,10.63
2023-01-13T23:59:29.543Z,10.35
